createdAt,value
2022-07-30T00:00:29.650Z,25.14
2022-07-30T00:02:58.192Z,25.16
2022-07-30T00:05:26.617Z,25.14
2022-07-30T00:07:54.953Z,25.16
2022-07-30T00:10:24.004Z,25.15
2022-07-30T00:12:52.995Z,25.14
2022-07-30T00:15:21.316Z,25.13
2022-07-30T00:17:51.079Z,25.11
2022-07-30T00:20:19.719Z,25.11
2022-07-30T00:22:48.220Z,25.11
2022-07-30T00:25:18.357Z,25.08
2022-07-30T00:27:47.060Z,25.08
2022-07-30T00:30:15.891Z,25.06
2022-07-30T00:32:44.986Z,25.09
2022-07-30T00:35:16.264Z,25.09
2022-07-30T00:37:46.561Z,25.06
2022-07-30T00:40:15.139Z,25.05
2022-07-30T00:42:44.949Z,25.04
2022-07-30T00:45:15.813Z,25.04
2022-07-30T00:47:44.502Z,25.03
2022-07-30T00:50:14.521Z,25.03
2022-07-30T00:52:44.612Z,25.02
2022-07-30T00:55:14.900Z,24.99
2022-07-30T00:57:44.018Z,24.99
2022-07-30T01:00:14.942Z,24.99
2022-07-30T01:02:43.876Z,25.01
2022-07-30T01:05:12.611Z,24.99
2022-07-30T01:07:41.952Z,24.99
2022-07-30T01:10:13.648Z,24.97
2022-07-30T01:12:43.520Z,24.97
2022-07-30T01:15:12.764Z,24.96
2022-07-30T01:17:41.513Z,24.94
2022-07-30T01:20:13.545Z,24.89
2022-07-30T01:22:49.129Z,24.86
2022-07-30T01:25:23.517Z,24.87
2022-07-30T01:27:56.219Z,24.88
2022-07-30T01:30:27.751Z,24.79
2022-07-30T01:32:58.002Z,24.82
2022-07-30T01:35:29.593Z,24.77
2022-07-30T01:38:00.284Z,24.79
2022-07-30T01:40:30.111Z,24.83
2022-07-30T01:43:02.387Z,24.77
2022-07-30T01:45:33.774Z,24.73
2022-07-30T01:48:11.031Z,24.73
2022-07-30T01:50:39.802Z,24.75
2022-07-30T01:53:11.907Z,24.75
2022-07-30T01:55:41.271Z,24.80
2022-07-30T01:58:11.873Z,24.80
2022-07-30T02:00:44.294Z,24.77
2022-07-30T02:03:12.818Z,24.77
2022-07-30T02:05:44.432Z,24.76
2022-07-30T02:08:17.157Z,24.77
2022-07-30T02:10:53.656Z,24.75
2022-07-30T02:13:27.404Z,24.71
2022-07-30T02:15:58.032Z,24.69
2022-07-30T02:18:32.385Z,24.69
2022-07-30T02:21:07.481Z,24.63
2022-07-30T02:23:41.113Z,24.50
2022-07-30T02:26:10.578Z,24.52
2022-07-30T02:28:44.951Z,24.52
2022-07-30T02:31:17.295Z,24.50
2022-07-30T02:33:49.492Z,24.48
2022-07-30T02:36:19.791Z,24.52
2022-07-30T02:38:51.348Z,24.52
2022-07-30T02:41:21.920Z,24.53
2022-07-30T02:43:53.510Z,24.58
2022-07-30T02:46:24.197Z,24.56
2022-07-30T02:49:12.275Z,24.59
2022-07-30T02:51:43.185Z,24.60
2022-07-30T02:54:12.624Z,24.58
2022-07-30T02:56:43.455Z,24.63
2022-07-30T02:59:14.477Z,24.57
2022-07-30T03:01:43.939Z,24.56
2022-07-30T03:04:13.548Z,24.59
2022-07-30T03:06:44.715Z,24.60
2022-07-30T03:09:16.764Z,24.61
2022-07-30T03:11:45.344Z,24.61
2022-07-30T03:14:15.089Z,24.61
2022-07-30T03:16:48.406Z,24.60
2022-07-30T03:19:21.912Z,24.57
2022-07-30T03:21:50.885Z,24.58
2022-07-30T03:24:23.537Z,24.61
2022-07-30T03:26:53.442Z,24.61
2022-07-30T03:29:24.184Z,24.60
2022-07-30T03:31:52.747Z,24.57
2022-07-30T03:34:22.749Z,24.56
2022-07-30T03:36:53.996Z,24.53
2022-07-30T03:39:23.546Z,24.56
2022-07-30T03:41:53.707Z,24.51
2022-07-30T03:44:25.270Z,24.52
2022-07-30T03:46:54.437Z,24.54
2022-07-30T03:49:24.445Z,24.53
2022-07-30T03:51:53.567Z,24.54
2022-07-30T03:54:22.073Z,24.53
2022-07-30T03:57:20.213Z,24.54
2022-07-30T03:59:52.685Z,24.55
2022-07-30T04:02:22.651Z,24.53
2022-07-30T04:05:03.411Z,24.54
2022-07-30T04:07:31.869Z,24.56
2022-07-30T04:10:07.129Z,24.51
2022-07-30T04:12:56.490Z,24.54
2022-07-30T04:16:40.049Z,24.56
2022-07-30T04:18:16.974Z,24.55
2022-07-30T04:20:47.465Z,24.53
2022-07-30T04:23:16.803Z,24.44
2022-07-30T04:25:46.251Z,24.38
2022-07-30T04:28:16.151Z,24.24
2022-07-30T04:30:47.205Z,24.13
2022-07-30T04:33:16.766Z,24.05
2022-07-30T04:36:07.695Z,23.95
2022-07-30T04:38:38.588Z,23.90
2022-07-30T04:41:07.542Z,23.91
2022-07-30T04:44:11.167Z,23.93
2022-07-30T04:46:48.842Z,23.80
2022-07-30T04:49:17.819Z,23.77
2022-07-30T04:51:46.924Z,23.79
2022-07-30T04:54:16.369Z,23.74
2022-07-30T04:56:52.564Z,23.74
2022-07-30T04:59:25.584Z,23.77
2022-07-30T05:01:57.684Z,23.75
2022-07-30T05:04:26.608Z,23.65
2022-07-30T05:06:55.119Z,23.57
2022-07-30T05:09:24.035Z,23.57
2022-07-30T05:11:53.027Z,23.63
2022-07-30T05:14:21.538Z,23.64
2022-07-30T05:16:50.390Z,23.70
2022-07-30T05:19:20.684Z,23.71
2022-07-30T05:21:49.311Z,23.69
2022-07-30T05:24:17.846Z,23.70
2022-07-30T05:26:54.678Z,23.69
2022-07-30T05:29:24.155Z,23.68
2022-07-30T05:32:02.583Z,23.69
2022-07-30T05:34:34.460Z,23.62
2022-07-30T05:37:03.168Z,23.55
2022-07-30T05:39:32.372Z,23.50
2022-07-30T05:42:22.003Z,23.46
2022-07-30T05:44:53.364Z,23.50
2022-07-30T05:47:22.638Z,23.54
2022-07-30T05:49:53.137Z,23.55
2022-07-30T05:52:21.482Z,23.62
2022-07-30T05:54:50.069Z,23.56
2022-07-30T05:57:37.542Z,23.55
2022-07-30T06:00:10.775Z,23.47
2022-07-30T06:02:45.115Z,23.43
2022-07-30T06:05:30.642Z,23.50
2022-07-30T06:08:01.426Z,23.50
2022-07-30T06:10:32.068Z,23.55
2022-07-30T06:13:00.532Z,23.57
2022-07-30T06:15:29.214Z,23.53
2022-07-30T06:18:01.718Z,23.51
2022-07-30T06:20:51.968Z,23.44
2022-07-30T06:23:39.401Z,23.45
2022-07-30T06:26:07.862Z,23.46
2022-07-30T06:28:39.401Z,23.49
2022-07-30T06:31:38.292Z,23.49
2022-07-30T06:34:08.080Z,23.52
2022-07-30T06:36:42.816Z,23.50
2022-07-30T06:39:56.062Z,23.54
2022-07-30T06:42:21.517Z,23.52
2022-07-30T06:45:16.037Z,23.61
2022-07-30T06:48:10.887Z,23.51
2022-07-30T06:50:41.291Z,23.55
2022-07-30T06:53:10.935Z,23.58
2022-07-30T06:56:00.683Z,23.63
2022-07-30T06:58:35.836Z,23.53
2022-07-30T07:01:23.544Z,23.46
2022-07-30T07:03:52.140Z,23.48
2022-07-30T07:06:20.495Z,23.58
2022-07-30T07:08:50.548Z,23.61
2022-07-30T07:11:24.996Z,23.66
2022-07-30T07:13:56.822Z,23.68
2022-07-30T07:16:33.515Z,23.68
2022-07-30T07:19:11.320Z,23.47
2022-07-30T07:21:42.492Z,23.40
2022-07-30T07:24:12.392Z,23.32
2022-07-30T07:26:55.583Z,23.40
2022-07-30T07:29:24.108Z,23.53
2022-07-30T07:32:05.930Z,23.57
2022-07-30T07:34:36.535Z,23.51
2022-07-30T07:37:04.921Z,23.58
2022-07-30T07:39:34.588Z,23.61
2022-07-30T07:42:02.905Z,23.57
2022-07-30T07:44:32.344Z,23.54
2022-07-30T07:47:00.977Z,23.57
2022-07-30T07:49:33.940Z,23.40
2022-07-30T07:52:03.232Z,23.53
2022-07-30T07:54:31.584Z,23.65
2022-07-30T07:57:01.894Z,23.65
2022-07-30T07:59:43.001Z,23.63
2022-07-30T08:02:16.909Z,23.64
2022-07-30T08:04:46.505Z,23.65
2022-07-30T08:07:32.463Z,23.69
2022-07-30T08:10:19.571Z,23.53
2022-07-30T08:13:49.156Z,23.59
2022-07-30T08:16:19.247Z,23.68
2022-07-30T08:18:53.123Z,23.66
2022-07-30T08:21:29.321Z,23.72
2022-07-30T08:23:58.566Z,23.69
2022-07-30T08:26:27.136Z,23.69
2022-07-30T08:28:56.782Z,23.67
2022-07-30T08:31:25.394Z,23.61
2022-07-30T08:33:54.015Z,23.51
2022-07-30T08:36:25.736Z,23.63
2022-07-30T08:38:55.201Z,23.64
2022-07-30T08:41:23.700Z,23.69
2022-07-30T08:43:52.518Z,23.71
2022-07-30T08:46:25.637Z,23.73
2022-07-30T08:49:11.198Z,23.66
2022-07-30T08:51:40.902Z,23.66
2022-07-30T08:54:40.192Z,23.67
2022-07-30T08:57:08.640Z,23.69
2022-07-30T08:59:59.235Z,23.63
2022-07-30T09:02:31.887Z,23.61
2022-07-30T09:05:05.642Z,23.71
2022-07-30T09:07:34.593Z,23.82
2022-07-30T09:10:07.192Z,23.85
2022-07-30T09:12:38.436Z,23.90
2022-07-30T09:15:09.747Z,23.98
2022-07-30T09:17:55.158Z,24.07
2022-07-30T09:20:25.977Z,24.14
2022-07-30T09:22:56.171Z,24.19
2022-07-30T09:25:46.598Z,24.21
2022-07-30T09:28:36.680Z,24.21
2022-07-30T09:31:17.262Z,24.26
2022-07-30T09:34:24.509Z,24.30
2022-07-30T09:37:03.440Z,24.28
2022-07-30T09:39:59.328Z,24.26
2022-07-30T09:43:05.568Z,24.32
2022-07-30T09:45:35.018Z,24.35
2022-07-30T09:48:04.150Z,24.40
2022-07-30T09:50:34.051Z,24.42
2022-07-30T09:53:12.259Z,24.40
2022-07-30T09:55:43.457Z,24.43
2022-07-30T09:58:20.025Z,24.47
2022-07-30T10:00:58.705Z,24.48
2022-07-30T10:03:48.500Z,24.54
2022-07-30T10:06:46.833Z,24.56
2022-07-30T10:09:30.195Z,24.58
2022-07-30T10:12:00.623Z,24.59
2022-07-30T10:14:34.048Z,24.61
2022-07-30T10:17:10.716Z,24.60
2022-07-30T10:19:42.203Z,24.56
2022-07-30T10:22:31.367Z,24.54
2022-07-30T10:25:23.359Z,24.55
2022-07-30T10:28:16.508Z,24.57
2022-07-30T10:30:46.157Z,24.61
2022-07-30T10:33:36.468Z,24.59
2022-07-30T10:36:08.979Z,24.59
2022-07-30T10:38:41.801Z,24.58
2022-07-30T10:41:42.210Z,24.60
2022-07-30T10:44:29.696Z,24.65
2022-07-30T10:47:07.838Z,24.72
2022-07-30T10:49:41.578Z,25.01
2022-07-30T10:52:12.459Z,24.82
2022-07-30T10:54:44.573Z,24.71
2022-07-30T10:57:23.084Z,24.64
2022-07-30T11:00:15.251Z,24.56
2022-07-30T11:03:16.422Z,24.49
2022-07-30T11:05:46.466Z,24.47
2022-07-30T11:08:32.094Z,24.50
2022-07-30T11:11:19.476Z,24.57
2022-07-30T11:13:55.067Z,24.54
2022-07-30T11:16:24.820Z,24.55
2022-07-30T11:19:57.063Z,24.61
2022-07-30T11:22:28.291Z,24.68
2022-07-30T11:24:58.627Z,24.78
2022-07-30T11:27:41.400Z,24.84
2022-07-30T11:30:32.476Z,24.90
2022-07-30T11:33:33.087Z,24.92
2022-07-30T11:36:10.530Z,24.95
2022-07-30T11:38:54.530Z,25.01
2022-07-30T11:41:23.255Z,24.97
2022-07-30T11:44:24.888Z,24.94
2022-07-30T11:46:54.986Z,24.92
2022-07-30T11:49:23.566Z,24.89
2022-07-30T11:51:51.998Z,24.87
2022-07-30T11:54:20.423Z,24.89
2022-07-30T11:56:50.276Z,24.98
2022-07-30T11:59:18.639Z,25.00
2022-07-30T12:01:51.607Z,25.03
2022-07-30T12:04:21.372Z,25.09
2022-07-30T12:06:50.356Z,25.04
2022-07-30T12:09:28.752Z,25.09
2022-07-30T12:11:58.155Z,25.17
2022-07-30T12:14:26.532Z,25.14
2022-07-30T12:16:55.496Z,25.25
2022-07-30T12:19:25.344Z,25.21
2022-07-30T12:21:53.910Z,25.17
2022-07-30T12:24:25.949Z,25.21
2022-07-30T12:26:54.473Z,25.27
2022-07-30T12:29:22.858Z,25.27
2022-07-30T12:31:53.594Z,25.32
2022-07-30T12:34:23.052Z,25.42
2022-07-30T12:36:53.373Z,25.42
2022-07-30T12:39:23.198Z,25.39
2022-07-30T12:41:52.515Z,25.34
2022-07-30T12:44:38.482Z,25.32
2022-07-30T12:47:11.713Z,25.36
2022-07-30T12:49:48.911Z,25.39
2022-07-30T12:52:28.685Z,25.39
2022-07-30T12:54:59.280Z,25.36
2022-07-30T12:57:27.674Z,25.45
2022-07-30T13:00:04.395Z,25.46
2022-07-30T13:02:34.061Z,25.46
2022-07-30T13:05:10.728Z,25.53
2022-07-30T13:07:55.704Z,25.55
2022-07-30T13:10:30.062Z,25.56
2022-07-30T13:12:59.427Z,25.51
2022-07-30T13:15:27.806Z,25.52
2022-07-30T13:17:56.179Z,25.54
2022-07-30T13:20:24.529Z,25.51
2022-07-30T13:22:56.816Z,25.59
2022-07-30T13:25:38.988Z,25.64
2022-07-30T13:28:08.946Z,25.61
2022-07-30T13:30:37.285Z,25.67
2022-07-30T13:33:05.601Z,25.74
2022-07-30T13:35:33.957Z,25.73
2022-07-30T13:38:03.664Z,25.78
2022-07-30T13:40:32.660Z,25.77
2022-07-30T13:43:01.619Z,25.79
2022-07-30T13:45:30.053Z,25.82
2022-07-30T13:47:59.353Z,25.75
2022-07-30T13:50:27.761Z,25.81
2022-07-30T13:53:01.782Z,25.89
2022-07-30T13:55:32.128Z,25.91
2022-07-30T13:58:01.346Z,25.94
2022-07-30T14:00:32.463Z,25.90
2022-07-30T14:03:01.791Z,25.88
2022-07-30T14:05:30.194Z,25.90
2022-07-30T14:07:59.009Z,25.88
2022-07-30T14:10:28.380Z,25.90
2022-07-30T14:12:59.920Z,25.86
2022-07-30T14:15:30.961Z,25.89
2022-07-30T14:18:00.383Z,25.90
2022-07-30T14:20:29.320Z,25.95
2022-07-30T14:22:58.009Z,25.97
2022-07-30T14:25:26.435Z,25.94
2022-07-30T14:27:54.809Z,26.05
2022-07-30T14:30:25.100Z,26.09
2022-07-30T14:32:59.216Z,26.00
2022-07-30T14:35:28.889Z,26.01
2022-07-30T14:37:57.433Z,26.03
2022-07-30T14:40:25.909Z,26.07
2022-07-30T14:42:56.255Z,26.09
2022-07-30T14:45:28.690Z,26.12
2022-07-30T14:47:57.338Z,26.18
2022-07-30T14:50:25.911Z,26.26
2022-07-30T14:52:55.333Z,26.27
2022-07-30T14:55:23.838Z,26.24
2022-07-30T14:57:52.163Z,26.19
2022-07-30T15:00:21.337Z,26.26
2022-07-30T15:02:54.058Z,26.29
2022-07-30T15:05:22.657Z,26.21
2022-07-30T15:07:50.980Z,26.19
2022-07-30T15:10:19.585Z,26.17
2022-07-30T15:12:47.963Z,26.16
2022-07-30T15:15:16.782Z,26.16
2022-07-30T15:17:45.956Z,26.15
2022-07-30T15:20:15.656Z,26.20
2022-07-30T15:22:44.071Z,26.29
2022-07-30T15:25:12.412Z,26.33
2022-07-30T15:27:40.757Z,26.33
2022-07-30T15:30:09.668Z,26.31
2022-07-30T15:32:38.569Z,26.29
2022-07-30T15:35:11.814Z,26.35
2022-07-30T15:37:43.303Z,26.41
2022-07-30T15:40:11.900Z,26.41
2022-07-30T15:42:40.689Z,26.40
2022-07-30T15:45:18.425Z,26.38
2022-07-30T15:47:47.195Z,26.39
2022-07-30T15:50:16.695Z,26.43
2022-07-30T15:52:46.593Z,26.47
2022-07-30T15:55:14.981Z,26.48
2022-07-30T15:57:43.519Z,26.49
2022-07-30T16:00:12.755Z,26.50
2022-07-30T16:02:43.498Z,26.54
2022-07-30T16:05:14.146Z,26.57
2022-07-30T16:07:42.797Z,26.57
2022-07-30T16:10:12.614Z,26.57
2022-07-30T16:12:42.049Z,26.59
2022-07-30T16:15:11.524Z,26.61
2022-07-30T16:17:40.121Z,26.60
2022-07-30T16:20:10.099Z,26.61
2022-07-30T16:22:38.781Z,26.61
2022-07-30T16:25:08.010Z,26.55
2022-07-30T16:27:37.762Z,26.60
2022-07-30T16:30:06.833Z,26.62
2022-07-30T16:32:35.173Z,26.61
2022-07-30T16:35:03.618Z,26.60
2022-07-30T16:37:32.001Z,26.64
2022-07-30T16:40:00.302Z,26.65
2022-07-30T16:42:28.825Z,26.63
2022-07-30T16:44:58.540Z,26.64
2022-07-30T16:47:27.072Z,26.61
2022-07-30T16:50:02.385Z,26.60
2022-07-30T16:52:30.750Z,26.63
2022-07-30T16:54:59.425Z,26.60
2022-07-30T16:57:27.930Z,26.58
2022-07-30T16:59:56.267Z,26.58
2022-07-30T17:02:26.225Z,26.60
2022-07-30T17:04:54.660Z,26.63
2022-07-30T17:07:23.347Z,26.60
2022-07-30T17:09:53.486Z,26.58
2022-07-30T17:12:23.327Z,26.59
2022-07-30T17:14:53.964Z,26.56
2022-07-30T17:17:22.397Z,26.55
2022-07-30T17:19:52.115Z,26.55
2022-07-30T17:22:20.589Z,26.52
2022-07-30T17:24:49.161Z,26.54
2022-07-30T17:27:17.591Z,26.52
2022-07-30T17:29:50.584Z,26.52
2022-07-30T17:32:20.028Z,26.47
2022-07-30T17:34:48.556Z,26.48
2022-07-30T17:37:18.347Z,26.51
2022-07-30T17:40:27.225Z,26.50
2022-07-30T17:42:35.236Z,26.52
2022-07-30T17:45:04.989Z,26.50
2022-07-30T17:47:33.774Z,26.50
2022-07-30T17:50:02.770Z,26.46
2022-07-30T17:52:32.503Z,26.45
2022-07-30T17:55:01.006Z,26.47
2022-07-30T17:57:29.452Z,26.44
2022-07-30T17:59:57.923Z,26.40
2022-07-30T18:02:29.013Z,26.38
2022-07-30T18:04:58.997Z,26.35
2022-07-30T18:07:31.995Z,26.38
2022-07-30T18:10:00.340Z,26.34
2022-07-30T18:12:28.849Z,26.30
2022-07-30T18:14:57.509Z,26.19
2022-07-30T18:17:26.296Z,26.12
2022-07-30T18:19:54.970Z,26.07
2022-07-30T18:22:29.313Z,26.07
2022-07-30T18:25:01.632Z,26.01
2022-07-30T18:27:30.048Z,25.97
2022-07-30T18:29:58.434Z,25.92
2022-07-30T18:32:26.948Z,25.83
2022-07-30T18:34:55.425Z,25.78
2022-07-30T18:37:23.772Z,25.78
2022-07-30T18:39:52.124Z,25.74
2022-07-30T18:42:21.980Z,25.78
2022-07-30T18:44:52.181Z,25.79
2022-07-30T18:47:20.589Z,25.74
2022-07-30T18:49:50.163Z,25.71
2022-07-30T18:52:18.773Z,25.69
2022-07-30T18:54:47.116Z,25.58
2022-07-30T18:57:15.830Z,25.54
2022-07-30T18:59:45.745Z,25.51
2022-07-30T19:02:14.123Z,25.57
2022-07-30T19:04:42.508Z,25.58
2022-07-30T19:07:10.815Z,25.69
2022-07-30T19:09:39.464Z,25.64
2022-07-30T19:12:08.355Z,25.63
2022-07-30T19:14:36.706Z,25.65
2022-07-30T19:17:13.886Z,25.68
2022-07-30T19:19:43.783Z,25.60
2022-07-30T19:22:12.115Z,25.63
2022-07-30T19:24:40.482Z,25.68
2022-07-30T19:27:13.704Z,25.66
2022-07-30T19:29:43.296Z,25.61
2022-07-30T19:32:13.273Z,25.66
2022-07-30T19:34:43.532Z,25.63
2022-07-30T19:37:12.003Z,25.59
2022-07-30T19:40:05.206Z,25.60
2022-07-30T19:42:29.470Z,25.62
2022-07-30T19:44:59.096Z,25.63
2022-07-30T19:47:39.335Z,25.61
2022-07-30T19:50:09.948Z,25.62
2022-07-30T19:52:38.643Z,25.58
2022-07-30T19:55:17.131Z,25.53
2022-07-30T19:57:55.787Z,25.50
2022-07-30T20:00:25.449Z,25.52
2022-07-30T20:02:55.263Z,25.55
2022-07-30T20:05:24.725Z,25.52
2022-07-30T20:07:53.346Z,25.49
2022-07-30T20:10:24.171Z,25.54
2022-07-30T20:12:52.483Z,25.58
2022-07-30T20:15:20.844Z,25.58
2022-07-30T20:17:49.206Z,25.53
2022-07-30T20:20:18.980Z,25.48
2022-07-30T20:22:54.771Z,25.49
2022-07-30T20:25:23.150Z,25.48
2022-07-30T20:27:51.549Z,25.47
2022-07-30T20:30:25.255Z,25.45
2022-07-30T20:32:54.171Z,25.45
2022-07-30T20:35:26.612Z,25.41
2022-07-30T20:37:56.572Z,25.39
2022-07-30T20:40:26.832Z,25.40
2022-07-30T20:42:56.079Z,25.41
2022-07-30T20:45:25.207Z,25.39
2022-07-30T20:47:56.525Z,25.39
2022-07-30T20:50:30.781Z,25.37
2022-07-30T20:53:00.215Z,25.37
2022-07-30T20:55:29.002Z,25.33
2022-07-30T20:58:07.010Z,25.32
2022-07-30T21:00:41.875Z,25.30
2022-07-30T21:03:13.822Z,25.28
2022-07-30T21:05:44.130Z,25.21
2022-07-30T21:08:12.924Z,25.23
2022-07-30T21:10:44.495Z,25.24
2022-07-30T21:13:13.714Z,25.16
2022-07-30T21:15:45.670Z,25.14
2022-07-30T21:18:30.765Z,25.16
2022-07-30T21:21:00.848Z,25.24
2022-07-30T21:23:29.339Z,25.28
2022-07-30T21:26:00.593Z,25.23
2022-07-30T21:28:35.742Z,25.16
2022-07-30T21:31:06.978Z,25.06
2022-07-30T21:33:36.460Z,24.83
2022-07-30T21:36:10.648Z,24.51
2022-07-30T21:38:41.802Z,24.73
2022-07-30T21:41:14.192Z,24.93
2022-07-30T21:43:44.501Z,24.84
2022-07-30T21:46:13.348Z,24.68
2022-07-30T21:48:43.064Z,24.70
2022-07-30T21:51:13.550Z,24.84
2022-07-30T21:53:44.774Z,24.77
2022-07-30T21:56:14.725Z,24.43
2022-07-30T21:58:45.140Z,24.72
2022-07-30T22:01:18.078Z,24.84
2022-07-30T22:04:04.050Z,24.65
2022-07-30T22:06:38.734Z,24.69
2022-07-30T22:09:19.828Z,24.68
2022-07-30T22:12:00.769Z,24.63
2022-07-30T22:14:31.470Z,24.59
2022-07-30T22:17:00.486Z,24.59
2022-07-30T22:19:28.983Z,24.43
2022-07-30T22:21:58.761Z,24.35
2022-07-30T22:24:31.275Z,24.72
2022-07-30T22:27:01.332Z,24.82
2022-07-30T22:29:34.553Z,24.91
2022-07-30T22:32:06.386Z,24.89
2022-07-30T22:34:36.388Z,24.88
2022-07-30T22:37:13.261Z,24.92
2022-07-30T22:39:51.753Z,24.86
2022-07-30T22:42:24.347Z,24.90
2022-07-30T22:44:54.807Z,24.94
2022-07-30T22:47:51.122Z,24.85
2022-07-30T22:50:12.829Z,24.64
2022-07-30T22:52:53.148Z,24.70
2022-07-30T22:55:27.039Z,24.73
2022-07-30T22:57:55.351Z,24.84
2022-07-30T23:00:28.230Z,24.80
2022-07-30T23:02:57.574Z,24.70
2022-07-30T23:05:26.766Z,24.64
2022-07-30T23:07:56.653Z,24.55
2022-07-30T23:10:27.929Z,24.22
2022-07-30T23:12:56.653Z,24.26
2022-07-30T23:15:25.165Z,24.52
2022-07-30T23:17:53.679Z,24.64
2022-07-30T23:20:22.750Z,24.31
2022-07-30T23:22:51.553Z,23.82
2022-07-30T23:25:22.919Z,24.34
2022-07-30T23:27:51.953Z,23.68
2022-07-30T23:30:20.317Z,23.55
2022-07-30T23:32:48.741Z,23.75
2022-07-30T23:35:17.727Z,24.30
2022-07-30T23:37:49.081Z,24.39
2022-07-30T23:40:18.961Z,24.40
2022-07-30T23:42:50.823Z,24.45
2022-07-30T23:45:19.524Z,24.47
2022-07-30T23:48:00.993Z,24.42
2022-07-30T23:50:32.922Z,24.49
2022-07-30T23:53:01.569Z,24.55
2022-07-30T23:55:31.021Z,24.51
2022-07-30T23:58:01.121Z,24.54
